sensor_id;sensor_type;location;lat;lon;timestamp;pressure;altitude;pressure_sealevel;temperature;humidity
64292;BME280;50628;51.008;13.658;2024-02-28T00:03:06;99873.28;;;4.45;100.00
64292;BME280;50628;51.008;13.658;2024-02-28T00:08:09;99871.69;;;4.58;100.00
64292;BME280;50628;51.008;13.658;2024-02-28T00:13:11;99883.59;;;4.61;100.00
64292;BME280;50628;51.008;13.658;2024-02-28T00:18:13;99887.00;;;4.45;100.00
64292;BME280;50628;51.008;13.658;2024-02-28T00:23:16;99889.00;;;4.56;100.00
64292;BME280;50628;51.008;13.658;2024-02-28T00:28:18;99891.78;;;4.69;100.00
64292;BME280;50628;51.008;13.658;2024-02-28T00:33:20;99896.13;;;4.51;100.00
64292;BME280;50628;51.008;13.658;2024-02-28T00:38:24;99902.41;;;4.63;100.00
64292;BME280;50628;51.008;13.658;2024-02-28T00:43:25;99909.06;;;4.83;100.00
64292;BME280;50628;51.008;13.658;2024-02-28T00:48:27;99911.13;;;4.76;100.00
64292;BME280;50628;51.008;13.658;2024-02-28T00:53:30;99915.31;;;4.94;100.00
64292;BME280;50628;51.008;13.658;2024-02-28T00:58:32;99910.13;;;4.78;100.00
64292;BME280;50628;51.008;13.658;2024-02-28T01:03:34;99905.25;;;4.90;100.00
64292;BME280;50628;51.008;13.658;2024-02-28T01:08:37;99912.06;;;4.91;100.00
64292;BME280;50628;51.008;13.658;2024-02-28T01:13:39;99909.22;;;4.95;100.00
64292;BME280;50628;51.008;13.658;2024-02-28T01:18:41;99895.09;;;4.87;100.00
64292;BME280;50628;51.008;13.658;2024-02-28T01:23:45;99891.44;;;4.75;100.00
64292;BME280;50628;51.008;13.658;2024-02-28T01:28:47;99892.06;;;4.78;100.00
64292;BME280;50628;51.008;13.658;2024-02-28T01:33:49;99884.34;;;4.63;100.00
64292;BME280;50628;51.008;13.658;2024-02-28T01:38:52;99879.28;;;4.77;100.00
64292;BME280;50628;51.008;13.658;2024-02-28T01:43:54;99876.63;;;4.63;100.00
64292;BME280;50628;51.008;13.658;2024-02-28T01:48:56;99880.78;;;4.65;100.00
64292;BME280;50628;51.008;13.658;2024-02-28T01:54:00;99883.44;;;4.80;100.00
64292;BME280;50628;51.008;13.658;2024-02-28T01:59:02;99874.56;;;4.69;100.00
64292;BME280;50628;51.008;13.658;2024-02-28T02:04:05;99879.47;;;4.74;100.00
64292;BME280;50628;51.008;13.658;2024-02-28T02:09:08;99876.03;;;4.58;100.00
64292;BME280;50628;51.008;13.658;2024-02-28T02:14:10;99864.63;;;4.46;100.00
64292;BME280;50628;51.008;13.658;2024-02-28T02:19:12;99865.22;;;4.51;100.00
64292;BME280;50628;51.008;13.658;2024-02-28T02:24:15;99868.53;;;4.53;100.00
64292;BME280;50628;51.008;13.658;2024-02-28T02:29:17;99875.28;;;4.55;100.00
64292;BME280;50628;51.008;13.658;2024-02-28T02:34:19;99876.03;;;4.58;100.00
64292;BME280;50628;51.008;13.658;2024-02-28T02:39:22;99872.81;;;4.54;100.00
64292;BME280;50628;51.008;13.658;2024-02-28T02:44:24;99877.78;;;4.57;100.00
64292;BME280;50628;51.008;13.658;2024-02-28T02:49:26;99867.06;;;4.65;100.00
64292;BME280;50628;51.008;13.658;2024-02-28T02:54:29;99878.63;;;4.89;100.00
64292;BME280;50628;51.008;13.658;2024-02-28T02:59:31;99884.50;;;4.75;100.00
64292;BME280;50628;51.008;13.658;2024-02-28T03:04:33;99875.72;;;4.80;100.00
64292;BME280;50628;51.008;13.658;2024-02-28T03:09:36;99888.50;;;4.81;100.00
64292;BME280;50628;51.008;13.658;2024-02-28T03:14:38;99892.06;;;4.78;100.00
64292;BME280;50628;51.008;13.658;2024-02-28T03:19:40;99900.22;;;4.55;100.00
64292;BME280;50628;51.008;13.658;2024-02-28T03:24:43;99895.22;;;4.36;100.00
64292;BME280;50628;51.008;13.658;2024-02-28T03:29:45;99907.72;;;4.44;100.00
64292;BME280;50628;51.008;13.658;2024-02-28T03:34:46;99914.28;;;4.49;100.00
64292;BME280;50628;51.008;13.658;2024-02-28T03:39:50;99912.50;;;4.34;100.00
64292;BME280;50628;51.008;13.658;2024-02-28T03:44:51;99929.41;;;4.22;100.00
64292;BME280;50628;51.008;13.658;2024-02-28T03:49:53;99941.03;;;4.31;100.00
64292;BME280;50628;51.008;13.658;2024-02-28T03:54:59;99945.94;;;4.18;100.00
64292;BME280;50628;51.008;13.658;2024-02-28T04:00:01;99942.25;;;4.06;100.00
64292;BME280;50628;51.008;13.658;2024-02-28T04:05:12;99957.31;;;4.14;100.00
64292;BME280;50628;51.008;13.658;2024-02-28T04:10:16;99970.97;;;3.99;100.00
64292;BME280;50628;51.008;13.658;2024-02-28T04:15:17;99987.47;;;4.29;100.00
64292;BME280;50628;51.008;13.658;2024-02-28T04:20:19;100005.66;;;4.26;100.00
64292;BME280;50628;51.008;13.658;2024-02-28T04:25:23;99988.22;;;4.31;100.00
64292;BME280;50628;51.008;13.658;2024-02-28T04:30:24;100004.84;;;4.26;100.00
64292;BME280;50628;51.008;13.658;2024-02-28T04:35:26;100012.63;;;4.24;100.00
64292;BME280;50628;51.008;13.658;2024-02-28T04:40:29;100014.16;;;4.11;100.00
64292;BME280;50628;51.008;13.658;2024-02-28T04:45:31;100019.66;;;4.21;100.00
64292;BME280;50628;51.008;13.658;2024-02-28T04:50:33;100011.09;;;4.20;100.00
64292;BME280;50628;51.008;13.658;2024-02-28T04:55:36;100029.97;;;4.21;100.00
64292;BME280;50628;51.008;13.658;2024-02-28T05:00:38;100022.16;;;4.22;100.00
64292;BME280;50628;51.008;13.658;2024-02-28T05:05:40;100022.81;;;4.43;100.00
64292;BME280;50628;51.008;13.658;2024-02-28T05:10:43;100016.25;;;4.38;100.00
64292;BME280;50628;51.008;13.658;2024-02-28T05:15:45;100018.75;;;4.57;100.00
64292;BME280;50628;51.008;13.658;2024-02-28T05:20:47;100028.81;;;4.61;100.00
64292;BME280;50628;51.008;13.658;2024-02-28T05:25:50;100029.47;;;4.65;100.00
64292;BME280;50628;51.008;13.658;2024-02-28T05:30:52;100032.16;;;4.46;100.00
64292;BME280;50628;51.008;13.658;2024-02-28T05:35:54;100035.13;;;4.38;100.00
64292;BME280;50628;51.008;13.658;2024-02-28T05:40:57;100035.88;;;4.40;100.00
64292;BME280;50628;51.008;13.658;2024-02-28T05:45:59;100049.59;;;4.41;100.00
64292;BME280;50628;51.008;13.658;2024-02-28T05:51:01;100052.47;;;4.34;100.00
64292;BME280;50628;51.008;13.658;2024-02-28T05:56:05;100064.66;;;4.48;100.00
64292;BME280;50628;51.008;13.658;2024-02-28T06:01:15;100064.66;;;4.66;100.00
64292;BME280;50628;51.008;13.658;2024-02-28T06:06:18;100067.94;;;4.52;100.00
64292;BME280;50628;51.008;13.658;2024-02-28T06:11:21;100072.41;;;4.48;100.00
64292;BME280;50628;51.008;13.658;2024-02-28T06:16:23;100075.13;;;4.63;100.00
64292;BME280;50628;51.008;13.658;2024-02-28T06:21:24;100074.53;;;4.40;100.00
64292;BME280;50628;51.008;13.658;2024-02-28T06:26:28;100076.66;;;4.32;100.00
64292;BME280;50628;51.008;13.658;2024-02-28T06:31:31;100083.19;;;4.39;100.00
64292;BME280;50628;51.008;13.658;2024-02-28T06:36:33;100090.81;;;4.58;100.00
64292;BME280;50628;51.008;13.658;2024-02-28T06:41:36;100102.81;;;4.59;100.00
64292;BME280;50628;51.008;13.658;2024-02-28T06:46:38;100101.22;;;4.57;100.00
64292;BME280;50628;51.008;13.658;2024-02-28T06:51:40;100103.78;;;4.74;100.00
64292;BME280;50628;51.008;13.658;2024-02-28T06:56:43;100106.59;;;4.69;100.00
64292;BME280;50628;51.008;13.658;2024-02-28T07:01:45;100109.31;;;4.14;100.00
64292;BME280;50628;51.008;13.658;2024-02-28T07:06:47;100120.06;;;4.22;100.00
64292;BME280;50628;51.008;13.658;2024-02-28T07:11:50;100118.34;;;3.86;100.00
64292;BME280;50628;51.008;13.658;2024-02-28T07:16:52;100117.81;;;4.16;100.00
64292;BME280;50628;51.008;13.658;2024-02-28T07:21:55;100122.72;;;4.03;100.00
64292;BME280;50628;51.008;13.658;2024-02-28T07:26:58;100120.59;;;4.11;100.00
64292;BME280;50628;51.008;13.658;2024-02-28T07:32:00;100121.25;;;4.51;100.00
64292;BME280;50628;51.008;13.658;2024-02-28T07:37:03;100127.22;;;4.34;100.00
64292;BME280;50628;51.008;13.658;2024-02-28T07:42:06;100138.66;;;3.93;100.00
64292;BME280;50628;51.008;13.658;2024-02-28T07:47:08;100135.75;;;4.18;100.00
64292;BME280;50628;51.008;13.658;2024-02-28T07:52:10;100140.88;;;4.37;100.00
64292;BME280;50628;51.008;13.658;2024-02-28T07:57:14;100156.00;;;4.25;100.00
64292;BME280;50628;51.008;13.658;2024-02-28T08:02:16;100153.06;;;4.33;100.00
64292;BME280;50628;51.008;13.658;2024-02-28T08:07:20;100153.88;;;4.16;100.00
64292;BME280;50628;51.008;13.658;2024-02-28T08:12:23;100166.31;;;4.25;100.00
64292;BME280;50628;51.008;13.658;2024-02-28T08:17:25;100162.38;;;4.36;100.00
64292;BME280;50628;51.008;13.658;2024-02-28T08:22:27;100159.72;;;4.37;100.00
64292;BME280;50628;51.008;13.658;2024-02-28T08:27:30;100162.56;;;4.50;100.00
64292;BME280;50628;51.008;13.658;2024-02-28T08:32:33;100177.94;;;4.15;100.00
64292;BME280;50628;51.008;13.658;2024-02-28T08:37:35;100185.13;;;4.45;100.00
64292;BME280;50628;51.008;13.658;2024-02-28T08:42:39;100182.63;;;4.07;100.00
64292;BME280;50628;51.008;13.658;2024-02-28T08:47:42;100189.19;;;3.95;100.00
64292;BME280;50628;51.008;13.658;2024-02-28T08:52:45;100186.91;;;3.89;100.00
64292;BME280;50628;51.008;13.658;2024-02-28T08:57:48;100190.66;;;3.82;100.00
64292;BME280;50628;51.008;13.658;2024-02-28T09:02:50;100207.47;;;4.08;100.00
64292;BME280;50628;51.008;13.658;2024-02-28T09:07:52;100205.41;;;4.16;100.00
64292;BME280;50628;51.008;13.658;2024-02-28T09:12:56;100205.94;;;4.23;100.00
64292;BME280;50628;51.008;13.658;2024-02-28T09:17:58;100208.59;;;4.02;100.00
64292;BME280;50628;51.008;13.658;2024-02-28T09:23:01;100197.81;;;3.94;100.00
64292;BME280;50628;51.008;13.658;2024-02-28T09:28:04;100199.88;;;4.24;100.00
64292;BME280;50628;51.008;13.658;2024-02-28T09:33:06;100205.50;;;4.32;100.00
64292;BME280;50628;51.008;13.658;2024-02-28T09:38:09;100220.00;;;4.34;100.00
64292;BME280;50628;51.008;13.658;2024-02-28T09:43:21;100224.34;;;4.51;100.00
64292;BME280;50628;51.008;13.658;2024-02-28T09:48:23;100228.34;;;4.40;100.00
64292;BME280;50628;51.008;13.658;2024-02-28T09:53:28;100231.22;;;4.33;100.00
64292;BME280;50628;51.008;13.658;2024-02-28T09:58:32;100224.09;;;4.39;100.00
64292;BME280;50628;51.008;13.658;2024-02-28T10:03:36;100235.25;;;4.20;100.00
64292;BME280;50628;51.008;13.658;2024-02-28T10:08:39;100239.38;;;4.24;100.00
64292;BME280;50628;51.008;13.658;2024-02-28T10:13:42;100241.28;;;4.38;100.00
64292;BME280;50628;51.008;13.658;2024-02-28T10:18:45;100240.06;;;4.64;100.00
64292;BME280;50628;51.008;13.658;2024-02-28T10:23:47;100255.56;;;4.45;100.00
64292;BME280;50628;51.008;13.658;2024-02-28T10:28:51;100261.38;;;4.68;100.00
64292;BME280;50628;51.008;13.658;2024-02-28T10:33:53;100258.97;;;4.46;100.00
64292;BME280;50628;51.008;13.658;2024-02-28T10:38:55;100273.94;;;4.57;100.00
64292;BME280;50628;51.008;13.658;2024-02-28T10:44:00;100275.59;;;4.76;100.00
64292;BME280;50628;51.008;13.658;2024-02-28T10:49:03;100288.50;;;4.58;100.00
64292;BME280;50628;51.008;13.658;2024-02-28T10:54:10;100295.22;;;4.24;100.00
64292;BME280;50628;51.008;13.658;2024-02-28T10:59:13;100296.53;;;4.32;100.00
64292;BME280;50628;51.008;13.658;2024-02-28T11:04:16;100285.97;;;4.56;100.00
64292;BME280;50628;51.008;13.658;2024-02-28T11:09:21;100290.91;;;4.80;100.00
64292;BME280;50628;51.008;13.658;2024-02-28T11:14:25;100280.34;;;4.67;100.00
64292;BME280;50628;51.008;13.658;2024-02-28T11:19:28;100285.72;;;4.43;100.00
64292;BME280;50628;51.008;13.658;2024-02-28T11:24:32;100287.94;;;4.87;100.00
64292;BME280;50628;51.008;13.658;2024-02-28T11:29:36;100283.19;;;4.97;100.00
64292;BME280;50628;51.008;13.658;2024-02-28T11:34:38;100273.75;;;4.61;100.00
64292;BME280;50628;51.008;13.658;2024-02-28T11:39:46;100278.94;;;4.60;100.00
64292;BME280;50628;51.008;13.658;2024-02-28T11:44:54;100291.22;;;4.91;100.00
64292;BME280;50628;51.008;13.658;2024-02-28T11:49:58;100287.78;;;4.90;100.00
64292;BME280;50628;51.008;13.658;2024-02-28T11:55:01;100281.84;;;4.71;100.00
64292;BME280;50628;51.008;13.658;2024-02-28T12:00:07;100284.31;;;4.91;100.00
64292;BME280;50628;51.008;13.658;2024-02-28T12:05:11;100284.59;;;4.85;100.00
64292;BME280;50628;51.008;13.658;2024-02-28T12:10:13;100291.19;;;4.73;100.00
64292;BME280;50628;51.008;13.658;2024-02-28T12:15:16;100290.94;;;5.32;100.00
64292;BME280;50628;51.008;13.658;2024-02-28T12:20:18;100279.03;;;5.29;100.00
64292;BME280;50628;51.008;13.658;2024-02-28T12:25:20;100282.66;;;5.42;100.00
64292;BME280;50628;51.008;13.658;2024-02-28T12:30:23;100286.66;;;5.48;100.00
64292;BME280;50628;51.008;13.658;2024-02-28T12:35:25;100273.00;;;5.46;100.00
64292;BME280;50628;51.008;13.658;2024-02-28T12:40:27;100283.66;;;5.23;100.00
64292;BME280;50628;51.008;13.658;2024-02-28T12:45:30;100281.03;;;5.57;100.00
64292;BME280;50628;51.008;13.658;2024-02-28T12:50:32;100280.22;;;5.57;100.00
64292;BME280;50628;51.008;13.658;2024-02-28T12:55:35;100282.59;;;5.77;100.00
64292;BME280;50628;51.008;13.658;2024-02-28T13:00:39;100276.66;;;5.75;100.00
64292;BME280;50628;51.008;13.658;2024-02-28T13:05:40;100275.84;;;5.75;100.00
64292;BME280;50628;51.008;13.658;2024-02-28T13:10:42;100271.59;;;5.56;100.00
64292;BME280;50628;51.008;13.658;2024-02-28T13:15:45;100276.88;;;5.55;100.00
64292;BME280;50628;51.008;13.658;2024-02-28T13:20:47;100275.56;;;5.79;100.00
64292;BME280;50628;51.008;13.658;2024-02-28T13:25:49;100273.16;;;5.94;100.00
64292;BME280;50628;51.008;13.658;2024-02-28T13:30:52;100279.41;;;5.72;100.00
64292;BME280;50628;51.008;13.658;2024-02-28T13:35:54;100282.63;;;5.60;100.00
64292;BME280;50628;51.008;13.658;2024-02-28T13:40:56;100273.50;;;5.86;100.00
64292;BME280;50628;51.008;13.658;2024-02-28T13:46:00;100256.19;;;5.88;100.00
64292;BME280;50628;51.008;13.658;2024-02-28T13:51:02;100264.84;;;6.20;100.00
64292;BME280;50628;51.008;13.658;2024-02-28T13:56:05;100274.09;;;6.24;100.00
64292;BME280;50628;51.008;13.658;2024-02-28T14:01:08;100264.47;;;6.74;100.00
64292;BME280;50628;51.008;13.658;2024-02-28T14:06:10;100264.75;;;7.87;100.00
64292;BME280;50628;51.008;13.658;2024-02-28T14:11:13;100267.38;;;8.70;100.00
64292;BME280;50628;51.008;13.658;2024-02-28T14:16:18;100265.81;;;8.40;100.00
64292;BME280;50628;51.008;13.658;2024-02-28T14:21:21;100251.66;;;8.03;100.00
64292;BME280;50628;51.008;13.658;2024-02-28T14:26:25;100256.25;;;8.95;100.00
64292;BME280;50628;51.008;13.658;2024-02-28T14:31:28;100251.09;;;9.46;100.00
64292;BME280;50628;51.008;13.658;2024-02-28T14:36:30;100249.97;;;9.50;100.00
64292;BME280;50628;51.008;13.658;2024-02-28T14:41:32;100239.91;;;10.08;100.00
64292;BME280;50628;51.008;13.658;2024-02-28T14:46:36;100238.69;;;10.25;100.00
64292;BME280;50628;51.008;13.658;2024-02-28T14:51:38;100236.41;;;10.33;100.00
64292;BME280;50628;51.008;13.658;2024-02-28T14:56:41;100237.88;;;11.08;100.00
64292;BME280;50628;51.008;13.658;2024-02-28T15:01:44;100231.78;;;11.65;100.00
64292;BME280;50628;51.008;13.658;2024-02-28T15:06:46;100241.16;;;12.02;100.00
64292;BME280;50628;51.008;13.658;2024-02-28T15:11:49;100240.94;;;11.94;100.00
64292;BME280;50628;51.008;13.658;2024-02-28T15:16:53;100243.22;;;11.07;100.00
64292;BME280;50628;51.008;13.658;2024-02-28T15:21:55;100233.34;;;11.68;100.00
64292;BME280;50628;51.008;13.658;2024-02-28T15:26:57;100232.75;;;10.95;100.00
64292;BME280;50628;51.008;13.658;2024-02-28T15:32:01;100235.72;;;9.56;100.00
64292;BME280;50628;51.008;13.658;2024-02-28T15:37:03;100241.41;;;9.10;100.00
64292;BME280;50628;51.008;13.658;2024-02-28T15:42:05;100234.97;;;9.16;100.00
64292;BME280;50628;51.008;13.658;2024-02-28T15:47:08;100240.59;;;9.22;100.00
64292;BME280;50628;51.008;13.658;2024-02-28T15:52:10;100232.63;;;8.45;100.00
64292;BME280;50628;51.008;13.658;2024-02-28T15:57:12;100234.28;;;8.05;100.00
64292;BME280;50628;51.008;13.658;2024-02-28T16:02:15;100239.38;;;7.92;100.00
64292;BME280;50628;51.008;13.658;2024-02-28T16:07:18;100242.63;;;7.67;100.00
64292;BME280;50628;51.008;13.658;2024-02-28T16:12:19;100250.84;;;7.45;100.00
64292;BME280;50628;51.008;13.658;2024-02-28T16:17:23;100247.88;;;7.23;100.00
64292;BME280;50628;51.008;13.658;2024-02-28T16:22:26;100254.06;;;6.90;100.00
64292;BME280;50628;51.008;13.658;2024-02-28T16:27:28;100253.50;;;6.39;100.00
64292;BME280;50628;51.008;13.658;2024-02-28T16:32:31;100257.16;;;6.35;100.00
64292;BME280;50628;51.008;13.658;2024-02-28T16:37:33;100251.25;;;6.33;100.00
64292;BME280;50628;51.008;13.658;2024-02-28T16:42:35;100256.34;;;6.18;100.00
64292;BME280;50628;51.008;13.658;2024-02-28T16:47:38;100257.34;;;6.00;100.00
64292;BME280;50628;51.008;13.658;2024-02-28T16:52:41;100262.81;;;5.60;100.00
64292;BME280;50628;51.008;13.658;2024-02-28T16:57:43;100264.56;;;5.42;100.00
64292;BME280;50628;51.008;13.658;2024-02-28T17:02:47;100273.88;;;5.12;100.00
64292;BME280;50628;51.008;13.658;2024-02-28T17:07:49;100291.16;;;4.92;100.00
64292;BME280;50628;51.008;13.658;2024-02-28T17:12:50;100281.22;;;4.66;100.00
64292;BME280;50628;51.008;13.658;2024-02-28T17:17:54;100293.59;;;4.40;100.00
64292;BME280;50628;51.008;13.658;2024-02-28T17:22:55;100292.91;;;4.18;100.00
64292;BME280;50628;51.008;13.658;2024-02-28T17:27:57;100288.66;;;4.17;100.00
64292;BME280;50628;51.008;13.658;2024-02-28T17:33:01;100301.63;;;4.15;100.00
64292;BME280;50628;51.008;13.658;2024-02-28T17:38:03;100300.91;;;3.93;100.00
64292;BME280;50628;51.008;13.658;2024-02-28T17:43:05;100309.59;;;3.90;100.00
64292;BME280;50628;51.008;13.658;2024-02-28T17:48:08;100305.94;;;3.75;100.00
64292;BME280;50628;51.008;13.658;2024-02-28T17:53:11;100310.16;;;3.57;100.00
64292;BME280;50628;51.008;13.658;2024-02-28T17:58:13;100316.53;;;3.28;100.00
64292;BME280;50628;51.008;13.658;2024-02-28T18:03:16;100321.78;;;3.25;100.00
64292;BME280;50628;51.008;13.658;2024-02-28T18:08:18;100314.47;;;3.16;100.00
64292;BME280;50628;51.008;13.658;2024-02-28T18:13:22;100326.84;;;3.06;100.00
64292;BME280;50628;51.008;13.658;2024-02-28T18:18:25;100324.53;;;3.00;100.00
64292;BME280;50628;51.008;13.658;2024-02-28T18:23:27;100324.09;;;2.89;100.00
64292;BME280;50628;51.008;13.658;2024-02-28T18:28:29;100321.31;;;2.73;100.00
64292;BME280;50628;51.008;13.658;2024-02-28T18:33:38;100328.75;;;2.57;100.00
64292;BME280;50628;51.008;13.658;2024-02-28T18:38:40;100329.03;;;2.49;100.00
64292;BME280;50628;51.008;13.658;2024-02-28T18:43:42;100324.16;;;2.43;100.00
64292;BME280;50628;51.008;13.658;2024-02-28T18:48:46;100323.84;;;2.51;100.00
64292;BME280;50628;51.008;13.658;2024-02-28T18:53:51;100329.94;;;2.48;100.00
64292;BME280;50628;51.008;13.658;2024-02-28T18:58:52;100344.53;;;2.24;100.00
64292;BME280;50628;51.008;13.658;2024-02-28T19:03:56;100341.91;;;2.26;100.00
64292;BME280;50628;51.008;13.658;2024-02-28T19:08:59;100352.06;;;2.29;100.00
64292;BME280;50628;51.008;13.658;2024-02-28T19:14:01;100352.78;;;2.09;100.00
64292;BME280;50628;51.008;13.658;2024-02-28T19:19:04;100359.25;;;1.95;100.00
64292;BME280;50628;51.008;13.658;2024-02-28T19:24:06;100360.09;;;1.71;100.00
64292;BME280;50628;51.008;13.658;2024-02-28T19:29:09;100360.47;;;1.60;100.00
64292;BME280;50628;51.008;13.658;2024-02-28T19:34:13;100366.59;;;1.56;100.00
64292;BME280;50628;51.008;13.658;2024-02-28T19:39:16;100351.25;;;1.55;100.00
64292;BME280;50628;51.008;13.658;2024-02-28T19:44:18;100353.19;;;1.48;100.00
64292;BME280;50628;51.008;13.658;2024-02-28T19:49:23;100350.34;;;1.30;100.00
64292;BME280;50628;51.008;13.658;2024-02-28T19:54:25;100352.59;;;1.40;100.00
64292;BME280;50628;51.008;13.658;2024-02-28T19:59:27;100348.63;;;1.31;100.00
64292;BME280;50628;51.008;13.658;2024-02-28T20:04:31;100354.78;;;1.25;100.00
64292;BME280;50628;51.008;13.658;2024-02-28T20:09:32;100346.16;;;1.01;100.00
64292;BME280;50628;51.008;13.658;2024-02-28T20:14:35;100359.22;;;0.94;100.00
64292;BME280;50628;51.008;13.658;2024-02-28T20:19:39;100344.53;;;0.99;100.00
64292;BME280;50628;51.008;13.658;2024-02-28T20:24:41;100350.63;;;0.95;100.00
64292;BME280;50628;51.008;13.658;2024-02-28T20:29:43;100352.94;;;0.76;100.00
64292;BME280;50628;51.008;13.658;2024-02-28T20:34:46;100349.97;;;0.88;100.00
64292;BME280;50628;51.008;13.658;2024-02-28T20:39:48;100352.72;;;0.82;100.00
64292;BME280;50628;51.008;13.658;2024-02-28T20:44:50;100348.31;;;0.87;100.00
64292;BME280;50628;51.008;13.658;2024-02-28T20:49:53;100349.34;;;0.81;100.00
64292;BME280;50628;51.008;13.658;2024-02-28T20:54:55;100353.00;;;0.73;100.00
64292;BME280;50628;51.008;13.658;2024-02-28T20:59:57;100347.59;;;0.82;100.00
64292;BME280;50628;51.008;13.658;2024-02-28T21:05:00;100342.94;;;0.67;100.00
64292;BME280;50628;51.008;13.658;2024-02-28T21:10:02;100330.63;;;0.50;100.00
64292;BME280;50628;51.008;13.658;2024-02-28T21:15:06;100334.31;;;0.41;100.00
64292;BME280;50628;51.008;13.658;2024-02-28T21:20:09;100324.06;;;0.41;100.00
64292;BME280;50628;51.008;13.658;2024-02-28T21:25:11;100324.75;;;0.18;100.00
64292;BME280;50628;51.008;13.658;2024-02-28T21:30:14;100325.94;;;0.36;100.00
64292;BME280;50628;51.008;13.658;2024-02-28T21:35:17;100322.66;;;0.31;100.00
64292;BME280;50628;51.008;13.658;2024-02-28T21:40:19;100321.59;;;0.08;100.00
64292;BME280;50628;51.008;13.658;2024-02-28T21:45:24;100329.16;;;0.13;100.00
64292;BME280;50628;51.008;13.658;2024-02-28T21:50:27;100327.66;;;0.06;100.00
64292;BME280;50628;51.008;13.658;2024-02-28T21:55:29;100326.53;;;0.14;100.00
64292;BME280;50628;51.008;13.658;2024-02-28T22:00:31;100326.53;;;0.14;100.00
64292;BME280;50628;51.008;13.658;2024-02-28T22:05:34;100321.03;;;-0.02;100.00
64292;BME280;50628;51.008;13.658;2024-02-28T22:10:36;100312.06;;;-0.18;100.00
64292;BME280;50628;51.008;13.658;2024-02-28T22:15:39;100314.56;;;-0.15;100.00
64292;BME280;50628;51.008;13.658;2024-02-28T22:20:42;100317.19;;;-0.18;100.00
64292;BME280;50628;51.008;13.658;2024-02-28T22:25:44;100316.31;;;-0.17;100.00
64292;BME280;50628;51.008;13.658;2024-02-28T22:30:46;100306.84;;;-0.13;100.00
64292;BME280;50628;51.008;13.658;2024-02-28T22:35:49;100312.06;;;-0.18;100.00
64292;BME280;50628;51.008;13.658;2024-02-28T22:40:51;100300.13;;;-0.17;100.00
64292;BME280;50628;51.008;13.658;2024-02-28T22:45:52;100307.75;;;-0.16;100.00
64292;BME280;50628;51.008;13.658;2024-02-28T22:50:56;100302.31;;;-0.35;100.00
64292;BME280;50628;51.008;13.658;2024-02-28T22:55:58;100308.19;;;-0.31;100.00
64292;BME280;50628;51.008;13.658;2024-02-28T23:00:59;100305.69;;;-0.34;100.00
64292;BME280;50628;51.008;13.658;2024-02-28T23:06:03;100304.59;;;-0.57;100.00
64292;BME280;50628;51.008;13.658;2024-02-28T23:11:05;100301.63;;;-0.41;100.00
64292;BME280;50628;51.008;13.658;2024-02-28T23:16:08;100297.53;;;-0.49;100.00
64292;BME280;50628;51.008;13.658;2024-02-28T23:21:11;100292.53;;;-0.52;100.00
64292;BME280;50628;51.008;13.658;2024-02-28T23:26:13;100301.41;;;-0.67;100.00
64292;BME280;50628;51.008;13.658;2024-02-28T23:31:14;100291.88;;;-0.60;100.00
64292;BME280;50628;51.008;13.658;2024-02-28T23:36:18;100296.53;;;-0.76;100.00
64292;BME280;50628;51.008;13.658;2024-02-28T23:41:20;100299.97;;;-0.77;100.00
64292;BME280;50628;51.008;13.658;2024-02-28T23:46:22;100283.22;;;-0.89;100.00
64292;BME280;50628;51.008;13.658;2024-02-28T23:51:25;100286.66;;;-0.88;100.00
64292;BME280;50628;51.008;13.658;2024-02-28T23:56:27;100287.09;;;-0.72;100.00
